カシュガル の空港の天気 - METARとTAF

カシュガル空港 ( ZWSH / KHG ) - 中国 新疆ウイグル自治区カシュガル市
飛行場実況気象(Metar)
観測時間01/20 13:00 CST (01/20 05:00 UTC)
風向・風速不定 1m/s
視程10km以上
天気現象
なし
気温4℃
湿度30%
気圧1024hPa
METARZWSH 200500Z VRB01MPS CAVOK 04/M12 Q1024 NOSIG
過去の天気等 Google飛行場航空写真 Wunderground天気予報

過去48時間のMETAR

飛行場予報(TAF)
発表時間: 1/20 05:33 CST (1/19 21:33 UTC)
予報対象時間: 20日8時 CST ~ 21日8時 CST
風向・風速北西 4m/s
視程6,000m
なし
20日12時 CST ~ 20日13時 CST に徐々に
風向・風速東 3m/s
20日22時 CST ~ 20日23時 CST に徐々に
風向・風速北西 4m/s
TAF ZWSH 192133Z 2000/2024 32004MPS 6000 NSC TX00/2009Z TNM09/00Z
BECMG 2004/2005 09003MPS
BECMG 2014/2015 32004MPS